createdAt,value
2023-02-11T00:00:58.351Z,21.68
2023-02-11T00:03:26.286Z,21.69
2023-02-11T00:06:01.716Z,21.67
2023-02-11T00:08:29.437Z,21.67
2023-02-11T00:10:57.347Z,21.64
2023-02-11T00:13:25.064Z,21.63
2023-02-11T00:15:52.834Z,21.63
2023-02-11T00:18:20.514Z,21.64
2023-02-11T00:20:48.235Z,21.64
2023-02-11T00:23:17.406Z,21.64
2023-02-11T00:25:45.660Z,21.64
2023-02-11T00:28:13.432Z,21.66
2023-02-11T00:30:41.199Z,21.68
2023-02-11T00:33:08.979Z,21.66
2023-02-11T00:35:37.835Z,21.68
2023-02-11T00:38:05.542Z,21.69
2023-02-11T00:40:34.651Z,21.70
2023-02-11T00:43:02.305Z,21.71
2023-02-11T00:45:30.704Z,21.72
2023-02-11T00:47:58.393Z,21.73
2023-02-11T00:50:26.363Z,21.73
2023-02-11T00:52:53.978Z,21.74
2023-02-11T00:55:21.615Z,21.75
2023-02-11T00:57:50.705Z,21.76
2023-02-11T01:00:18.529Z,21.77
2023-02-11T01:02:46.288Z,21.78
2023-02-11T01:05:14.021Z,21.78
2023-02-11T01:07:41.730Z,21.77
2023-02-11T01:10:09.527Z,21.78
2023-02-11T01:12:37.189Z,21.77
2023-02-11T01:15:06.616Z,21.77
2023-02-11T01:17:34.472Z,21.78
2023-02-11T01:20:03.178Z,21.78
2023-02-11T01:22:30.853Z,21.77
2023-02-11T01:24:58.473Z,21.79
2023-02-11T01:27:26.169Z,21.78
2023-02-11T01:29:53.872Z,21.79
2023-02-11T01:32:22.967Z,21.80
2023-02-11T01:34:50.602Z,21.79
2023-02-11T01:37:18.339Z,21.79
2023-02-11T01:39:46.119Z,21.81
2023-02-11T01:42:15.058Z,21.82
2023-02-11T01:44:42.765Z,21.82
2023-02-11T01:47:10.525Z,21.83
2023-02-11T01:49:39.813Z,21.83
2023-02-11T01:52:08.457Z,21.83
2023-02-11T01:54:53.827Z,21.84
2023-02-11T01:57:25.890Z,21.84
2023-02-11T01:59:55.797Z,21.84
2023-02-11T02:02:25.222Z,21.85
2023-02-11T02:04:54.603Z,21.85
2023-02-11T02:07:32.389Z,21.85
2023-02-11T02:10:00.578Z,21.85
2023-02-11T02:12:28.329Z,21.84
2023-02-11T02:15:12.027Z,21.84
2023-02-11T02:17:40.258Z,21.83
2023-02-11T02:20:16.304Z,21.83
2023-02-11T02:22:58.808Z,21.83
2023-02-11T02:25:29.924Z,21.83
2023-02-11T02:27:57.955Z,21.84
2023-02-11T02:30:31.105Z,21.84
2023-02-11T02:33:07.986Z,21.83
2023-02-11T02:35:41.658Z,21.85
2023-02-11T02:38:09.685Z,21.86
2023-02-11T02:40:37.931Z,21.87
2023-02-11T02:43:05.646Z,21.86
2023-02-11T02:45:33.855Z,21.86
2023-02-11T02:48:02.921Z,21.87
2023-02-11T02:50:31.764Z,21.87
2023-02-11T02:53:02.879Z,21.87
2023-02-11T02:55:34.161Z,21.89
2023-02-11T02:58:06.585Z,21.89
2023-02-11T03:00:35.643Z,21.89
2023-02-11T03:03:11.812Z,21.89
2023-02-11T03:05:41.660Z,21.88
2023-02-11T03:08:09.639Z,21.88
2023-02-11T03:10:37.753Z,21.89
2023-02-11T03:13:05.430Z,21.88
2023-02-11T03:15:33.924Z,21.88
2023-02-11T03:18:01.668Z,21.88
2023-02-11T03:20:30.841Z,21.88
2023-02-11T03:22:59.223Z,21.88
2023-02-11T03:25:28.132Z,21.87
2023-02-11T03:27:58.316Z,21.87
2023-02-11T03:30:27.078Z,21.87
2023-02-11T03:32:54.961Z,21.87
2023-02-11T03:35:22.996Z,21.87
2023-02-11T03:37:52.383Z,21.88
2023-02-11T03:40:20.474Z,21.89
2023-02-11T03:42:49.669Z,21.89
2023-02-11T03:45:18.012Z,21.89
2023-02-11T03:47:47.110Z,21.90
2023-02-11T03:50:14.816Z,21.91
2023-02-11T03:52:42.611Z,21.90
2023-02-11T03:55:12.778Z,21.91
2023-02-11T03:57:40.437Z,21.91
2023-02-11T04:00:08.566Z,21.91
2023-02-11T04:02:36.522Z,21.92
2023-02-11T04:05:04.300Z,21.91
2023-02-11T04:07:31.965Z,21.91
2023-02-11T04:09:59.574Z,21.90
2023-02-11T04:12:28.637Z,21.91
2023-02-11T04:14:56.376Z,21.89
2023-02-11T04:17:24.040Z,21.89
2023-02-11T04:19:51.793Z,21.88
2023-02-11T04:22:19.464Z,21.89
2023-02-11T04:24:47.165Z,21.88
2023-02-11T04:27:14.984Z,21.87
2023-02-11T04:29:44.060Z,21.88
2023-02-11T04:32:11.957Z,21.88
2023-02-11T04:34:39.800Z,21.87
2023-02-11T04:37:07.544Z,21.87
2023-02-11T04:39:35.220Z,21.87
2023-02-11T04:42:02.836Z,21.88
2023-02-11T04:44:30.553Z,21.88
2023-02-11T04:46:59.650Z,21.89
2023-02-11T04:49:27.371Z,21.89
2023-02-11T04:51:55.050Z,21.88
2023-02-11T04:54:23.124Z,21.89
2023-02-11T04:56:51.144Z,21.89
2023-02-11T04:59:18.805Z,21.89
2023-02-11T05:01:46.512Z,21.89
2023-02-11T05:04:15.721Z,21.89
2023-02-11T05:06:43.521Z,21.89
2023-02-11T05:09:11.598Z,21.88
2023-02-11T05:11:40.170Z,21.88
2023-02-11T05:14:07.819Z,21.89
2023-02-11T05:16:35.700Z,21.88
2023-02-11T05:19:03.458Z,21.87
2023-02-11T05:21:32.529Z,21.87
2023-02-11T05:24:01.561Z,21.86
2023-02-11T05:26:30.638Z,21.85
2023-02-11T05:28:58.386Z,21.85
2023-02-11T05:31:27.239Z,21.85
2023-02-11T05:33:54.923Z,21.85
2023-02-11T05:36:23.924Z,21.84
2023-02-11T05:38:54.302Z,21.84
2023-02-11T05:41:23.223Z,21.85
2023-02-11T05:43:52.409Z,21.85
2023-02-11T05:46:21.292Z,21.85
2023-02-11T05:48:49.156Z,21.86
2023-02-11T05:51:18.362Z,21.85
2023-02-11T05:53:46.091Z,21.86
2023-02-11T05:56:16.189Z,21.85
2023-02-11T05:58:45.060Z,21.86
2023-02-11T06:01:14.011Z,21.85
2023-02-11T06:03:41.875Z,21.85
2023-02-11T06:06:11.525Z,21.87
2023-02-11T06:08:40.573Z,21.86
2023-02-11T06:11:08.194Z,21.87
2023-02-11T06:13:37.238Z,21.86
2023-02-11T06:16:05.161Z,21.87
2023-02-11T06:18:34.109Z,21.87
2023-02-11T06:21:05.480Z,21.86
2023-02-11T06:23:34.516Z,21.87
2023-02-11T06:26:03.582Z,21.88
2023-02-11T06:28:32.522Z,21.87
2023-02-11T06:31:07.652Z,21.86
2023-02-11T06:33:36.823Z,21.87
2023-02-11T06:36:06.528Z,21.88
2023-02-11T06:38:35.294Z,21.88
2023-02-11T06:41:02.969Z,21.89
2023-02-11T06:43:30.709Z,21.89
2023-02-11T06:45:58.321Z,21.91
2023-02-11T06:48:27.432Z,21.91
2023-02-11T06:50:55.153Z,21.93
2023-02-11T06:53:26.233Z,21.93
2023-02-11T06:55:54.962Z,21.94
2023-02-11T06:58:22.979Z,21.95
2023-02-11T07:00:52.382Z,21.98
2023-02-11T07:03:21.341Z,21.98
2023-02-11T07:05:51.740Z,21.99
2023-02-11T07:08:22.289Z,22.00
2023-02-11T07:10:51.084Z,22.01
2023-02-11T07:13:20.184Z,22.02
2023-02-11T07:15:49.472Z,22.03
2023-02-11T07:18:20.664Z,22.04
2023-02-11T07:20:49.430Z,22.05
2023-02-11T07:23:19.588Z,22.06
2023-02-11T07:25:47.313Z,22.08
2023-02-11T07:28:15.556Z,22.08
2023-02-11T07:30:43.307Z,22.09
2023-02-11T07:33:10.905Z,22.09
2023-02-11T07:35:40.439Z,22.11
2023-02-11T07:38:09.341Z,22.12
2023-02-11T07:40:39.187Z,22.15
2023-02-11T07:43:06.818Z,22.16
2023-02-11T07:45:35.114Z,22.20
2023-02-11T07:48:03.383Z,22.23
2023-02-11T07:50:31.577Z,22.25
2023-02-11T07:52:59.280Z,22.27
2023-02-11T07:55:27.343Z,22.29
2023-02-11T07:57:56.405Z,22.31
2023-02-11T08:00:24.846Z,22.34
2023-02-11T08:02:52.453Z,22.34
2023-02-11T08:05:20.838Z,22.38
2023-02-11T08:07:49.393Z,22.36
2023-02-11T08:10:17.161Z,22.41
2023-02-11T08:12:45.912Z,22.43
2023-02-11T08:15:15.012Z,22.45
2023-02-11T08:17:43.315Z,22.47
2023-02-11T08:20:12.020Z,22.49
2023-02-11T08:22:40.338Z,22.51
2023-02-11T08:25:08.141Z,22.52
2023-02-11T08:27:35.747Z,22.55
2023-02-11T08:30:04.146Z,22.57
2023-02-11T08:32:33.180Z,22.59
2023-02-11T08:35:03.529Z,22.60
2023-02-11T08:37:33.046Z,22.63
2023-02-11T08:40:01.598Z,22.64
2023-02-11T08:42:29.225Z,22.66
2023-02-11T08:44:56.884Z,22.66
2023-02-11T08:47:25.234Z,22.68
2023-02-11T08:49:55.024Z,22.70
2023-02-11T08:52:23.346Z,22.53
2023-02-11T08:54:50.961Z,22.46
2023-02-11T08:57:19.369Z,22.46
2023-02-11T08:59:46.985Z,22.45
2023-02-11T09:02:16.019Z,22.46
2023-02-11T09:04:43.807Z,22.43
2023-02-11T09:07:14.449Z,22.42
2023-02-11T09:09:42.154Z,22.41
2023-02-11T09:12:11.493Z,22.42
2023-02-11T09:14:39.473Z,22.38
2023-02-11T09:17:08.584Z,22.37
2023-02-11T09:19:36.147Z,22.35
2023-02-11T09:22:04.518Z,22.34
2023-02-11T09:24:33.575Z,22.32
2023-02-11T09:27:02.575Z,22.32
2023-02-11T09:29:30.354Z,22.34
2023-02-11T09:31:58.129Z,22.37
2023-02-11T09:34:26.532Z,22.38
2023-02-11T09:36:54.248Z,22.39
2023-02-11T09:39:24.231Z,22.42
2023-02-11T09:42:03.960Z,22.42
2023-02-11T09:44:34.573Z,22.43
2023-02-11T09:47:05.186Z,22.45
2023-02-11T09:49:35.458Z,22.46
2023-02-11T09:52:04.605Z,22.45
2023-02-11T09:54:33.089Z,22.47
2023-02-11T09:57:02.913Z,22.47
2023-02-11T09:59:30.618Z,22.47
2023-02-11T10:01:59.688Z,22.49
2023-02-11T10:04:32.579Z,22.49
2023-02-11T10:07:02.549Z,22.50
2023-02-11T10:09:35.547Z,22.52
2023-02-11T10:12:11.314Z,22.52
2023-02-11T10:14:49.025Z,22.54
2023-02-11T10:17:19.725Z,22.56
2023-02-11T10:19:51.232Z,22.55
2023-02-11T10:22:20.456Z,22.55
2023-02-11T10:24:51.072Z,22.57
2023-02-11T10:27:21.541Z,22.56
2023-02-11T10:29:50.421Z,22.56
2023-02-11T10:32:23.129Z,22.57
2023-02-11T10:34:50.826Z,22.56
2023-02-11T10:37:18.476Z,22.55
2023-02-11T10:39:46.937Z,22.56
2023-02-11T10:42:14.776Z,22.55
2023-02-11T10:44:46.675Z,22.54
2023-02-11T10:47:16.938Z,22.54
2023-02-11T10:49:45.028Z,22.57
2023-02-11T10:52:17.323Z,22.59
2023-02-11T10:54:56.104Z,22.58
2023-02-11T10:57:24.483Z,22.61
2023-02-11T10:59:53.673Z,22.60
2023-02-11T11:02:23.501Z,22.62
2023-02-11T11:04:51.209Z,22.63
2023-02-11T11:07:20.112Z,22.66
2023-02-11T11:09:50.016Z,22.65
2023-02-11T11:12:25.237Z,22.66
2023-02-11T11:14:57.659Z,22.67
2023-02-11T11:17:29.070Z,22.68
2023-02-11T11:20:10.544Z,22.69
2023-02-11T11:22:38.931Z,22.68
2023-02-11T11:25:06.907Z,22.70
2023-02-11T11:27:35.295Z,22.71
2023-02-11T11:30:04.338Z,22.72
2023-02-11T11:32:33.647Z,22.74
2023-02-11T11:35:02.763Z,22.75
2023-02-11T11:37:30.838Z,22.76
2023-02-11T11:40:00.271Z,22.77
2023-02-11T11:42:28.440Z,22.77
2023-02-11T11:45:00.793Z,22.79
2023-02-11T11:47:32.842Z,22.82
2023-02-11T11:50:07.773Z,22.84
2023-02-11T11:52:37.459Z,22.87
2023-02-11T11:55:07.184Z,22.87
2023-02-11T11:57:35.564Z,22.89
2023-02-11T12:00:04.015Z,22.89
2023-02-11T12:02:46.501Z,22.92
2023-02-11T12:05:15.562Z,22.92
2023-02-11T12:07:49.178Z,22.93
2023-02-11T12:10:26.548Z,22.91
2023-02-11T12:12:55.954Z,22.92
2023-02-11T12:15:27.350Z,22.93
2023-02-11T12:18:08.072Z,22.94
2023-02-11T12:20:38.749Z,22.95
2023-02-11T12:23:11.919Z,22.96
2023-02-11T12:25:41.570Z,22.98
2023-02-11T12:28:12.277Z,22.99
2023-02-11T12:30:51.982Z,23.00
2023-02-11T12:33:24.125Z,23.00
2023-02-11T12:35:55.593Z,23.00
2023-02-11T12:38:27.378Z,23.01
2023-02-11T12:40:58.520Z,23.01
2023-02-11T12:43:25.554Z,23.02
2023-02-11T12:46:04.209Z,23.04
2023-02-11T12:48:37.965Z,23.07
2023-02-11T12:51:09.651Z,23.07
2023-02-11T12:53:41.865Z,23.08
2023-02-11T12:56:12.431Z,23.09
2023-02-11T12:58:45.425Z,23.10
2023-02-11T13:01:17.281Z,23.11
2023-02-11T13:03:46.616Z,23.12
2023-02-11T13:06:14.820Z,23.11
2023-02-11T13:08:44.433Z,23.10
2023-02-11T13:11:15.130Z,23.09
2023-02-11T13:13:48.253Z,23.10
2023-02-11T13:16:18.599Z,23.08
2023-02-11T13:18:50.165Z,23.08
2023-02-11T13:21:23.313Z,23.09
2023-02-11T13:23:53.477Z,23.08
2023-02-11T13:26:22.550Z,23.07
2023-02-11T13:28:50.771Z,23.08
2023-02-11T13:31:21.255Z,23.07
2023-02-11T13:33:50.721Z,23.08
2023-02-11T13:36:19.966Z,23.09
2023-02-11T13:39:02.025Z,23.10
2023-02-11T13:41:37.796Z,23.11
2023-02-11T13:44:22.388Z,23.13
2023-02-11T13:46:54.822Z,23.15
2023-02-11T13:49:24.416Z,23.17
2023-02-11T13:51:52.776Z,23.18
2023-02-11T13:54:22.278Z,23.18
2023-02-11T13:56:56.797Z,23.19
2023-02-11T13:59:42.351Z,23.20
2023-02-11T14:02:39.708Z,23.20
2023-02-11T14:05:42.828Z,23.21
2023-02-11T14:08:32.990Z,23.19
2023-02-11T14:11:00.798Z,23.21
2023-02-11T14:13:33.803Z,23.21
2023-02-11T14:16:04.792Z,23.21
2023-02-11T14:18:52.720Z,23.20
2023-02-11T14:21:23.162Z,23.20
2023-02-11T14:23:54.737Z,23.20
2023-02-11T14:26:33.988Z,23.19
2023-02-11T14:29:03.105Z,23.17
2023-02-11T14:31:31.709Z,23.18
2023-02-11T14:34:08.831Z,23.16
2023-02-11T14:36:46.308Z,23.14
2023-02-11T14:39:17.086Z,23.12
2023-02-11T14:41:45.529Z,23.11
2023-02-11T14:44:16.852Z,23.08
2023-02-11T14:46:47.932Z,23.08
2023-02-11T14:49:18.813Z,23.04
2023-02-11T14:51:47.835Z,23.04
2023-02-11T14:54:16.952Z,23.02
2023-02-11T14:56:45.969Z,23.00
2023-02-11T14:59:17.517Z,22.98
2023-02-11T15:01:47.648Z,22.96
2023-02-11T15:04:23.673Z,22.95
2023-02-11T15:06:53.549Z,22.91
2023-02-11T15:09:24.191Z,22.90
2023-02-11T15:11:52.607Z,22.89
2023-02-11T15:14:20.641Z,22.89
2023-02-11T15:16:49.089Z,22.88
2023-02-11T15:19:21.314Z,22.85
2023-02-11T15:21:49.732Z,22.84
2023-02-11T15:24:25.641Z,22.83
2023-02-11T15:27:03.322Z,22.82
2023-02-11T15:29:35.807Z,22.79
2023-02-11T15:32:08.087Z,22.79
2023-02-11T15:34:35.966Z,22.76
2023-02-11T15:37:03.763Z,22.75
2023-02-11T15:39:35.050Z,22.75
2023-02-11T15:42:18.734Z,22.74
2023-02-11T15:44:50.522Z,22.75
2023-02-11T15:47:24.405Z,22.73
2023-02-11T15:49:52.760Z,22.74
2023-02-11T15:52:23.504Z,22.71
2023-02-11T15:54:53.493Z,22.71
2023-02-11T15:57:21.207Z,22.72
2023-02-11T15:59:50.008Z,22.69
2023-02-11T16:02:18.069Z,22.68
2023-02-11T16:04:50.991Z,22.67
2023-02-11T16:07:33.572Z,22.67
2023-02-11T16:10:03.514Z,22.64
2023-02-11T16:12:31.194Z,22.64
2023-02-11T16:15:03.914Z,22.63
2023-02-11T16:17:31.586Z,22.61
2023-02-11T16:19:59.199Z,22.61
2023-02-11T16:22:28.867Z,22.60
2023-02-11T16:24:56.793Z,22.58
2023-02-11T16:27:29.394Z,22.57
2023-02-11T16:29:57.208Z,22.57
2023-02-11T16:32:26.253Z,22.56
2023-02-11T16:34:54.078Z,22.55
2023-02-11T16:37:22.561Z,22.54
2023-02-11T16:39:50.216Z,22.53
2023-02-11T16:42:18.951Z,22.53
2023-02-11T16:44:48.063Z,22.52
2023-02-11T16:47:18.155Z,22.52
2023-02-11T16:49:45.802Z,22.50
2023-02-11T16:52:15.847Z,22.51
2023-02-11T16:54:43.492Z,22.50
2023-02-11T16:57:12.774Z,22.49
2023-02-11T16:59:40.432Z,22.50
2023-02-11T17:02:11.917Z,22.49
2023-02-11T17:04:39.638Z,22.48
2023-02-11T17:07:08.453Z,22.47
2023-02-11T17:09:36.192Z,22.49
2023-02-11T17:12:04.621Z,22.47
2023-02-11T17:14:32.324Z,22.47
2023-02-11T17:17:00.137Z,22.46
2023-02-11T17:19:30.365Z,22.44
2023-02-11T17:21:57.985Z,22.45
2023-02-11T17:24:26.385Z,22.44
2023-02-11T17:26:54.854Z,22.41
2023-02-11T17:29:25.064Z,22.41
2023-02-11T17:31:52.927Z,22.41
2023-02-11T17:34:24.991Z,22.41
2023-02-11T17:36:53.982Z,22.39
2023-02-11T17:39:22.888Z,22.37
2023-02-11T17:41:50.577Z,22.38
2023-02-11T17:44:19.057Z,22.37
2023-02-11T17:46:49.214Z,22.36
2023-02-11T17:49:17.743Z,22.33
2023-02-11T17:51:45.430Z,22.34
2023-02-11T17:54:15.111Z,22.33
2023-02-11T17:56:44.047Z,22.34
2023-02-11T17:59:11.829Z,22.34
2023-02-11T18:01:40.421Z,22.33
2023-02-11T18:04:08.274Z,22.33
2023-02-11T18:06:35.917Z,22.33
2023-02-11T18:09:06.037Z,22.32
2023-02-11T18:11:35.172Z,22.33
2023-02-11T18:14:03.882Z,22.32
2023-02-11T18:16:31.713Z,22.33
2023-02-11T18:18:59.474Z,22.31
2023-02-11T18:21:28.065Z,22.31
2023-02-11T18:23:56.982Z,22.30
2023-02-11T18:26:25.835Z,22.29
2023-02-11T18:28:55.686Z,22.29
2023-02-11T18:31:23.588Z,22.29
2023-02-11T18:33:54.070Z,22.28
2023-02-11T18:36:21.783Z,22.27
2023-02-11T18:38:51.043Z,22.26
2023-02-11T18:41:18.693Z,22.25
2023-02-11T18:43:46.627Z,22.26
2023-02-11T18:46:35.237Z,22.25
2023-02-11T18:49:04.510Z,22.25
2023-02-11T18:51:32.589Z,22.24
2023-02-11T18:54:02.072Z,22.24
2023-02-11T18:56:29.707Z,22.24
2023-02-11T18:58:58.187Z,22.21
2023-02-11T19:01:27.942Z,22.21
2023-02-11T19:03:55.737Z,22.23
2023-02-11T19:06:25.710Z,22.23
2023-02-11T19:08:53.425Z,22.22
2023-02-11T19:11:41.916Z,22.23
2023-02-11T19:14:10.444Z,22.24
2023-02-11T19:16:39.557Z,22.24
2023-02-11T19:19:08.186Z,22.24
2023-02-11T19:21:35.874Z,22.25
2023-02-11T19:24:08.255Z,22.25
2023-02-11T19:26:36.198Z,22.26
2023-02-11T19:29:03.837Z,22.25
2023-02-11T19:31:34.232Z,22.25
2023-02-11T19:34:03.464Z,22.25
2023-02-11T19:36:31.124Z,22.25
2023-02-11T19:39:04.187Z,22.25
2023-02-11T19:41:31.928Z,22.24
2023-02-11T19:43:59.615Z,22.25
2023-02-11T19:46:29.089Z,22.25
2023-02-11T19:48:57.560Z,22.25
2023-02-11T19:51:27.311Z,22.25
2023-02-11T19:53:55.032Z,22.25
2023-02-11T19:56:23.432Z,22.25
2023-02-11T19:58:52.071Z,22.25
2023-02-11T20:01:20.186Z,22.25
2023-02-11T20:03:49.924Z,22.25
2023-02-11T20:06:22.266Z,22.24
2023-02-11T20:08:51.277Z,22.25
2023-02-11T20:11:20.593Z,22.25
2023-02-11T20:13:49.256Z,22.24
2023-02-11T20:16:18.598Z,22.24
2023-02-11T20:18:46.510Z,22.25
2023-02-11T20:21:14.663Z,22.25
2023-02-11T20:23:49.448Z,22.25
2023-02-11T20:26:18.772Z,22.25
2023-02-11T20:28:47.430Z,22.26
2023-02-11T20:31:16.274Z,22.26
2023-02-11T20:33:44.146Z,22.26
2023-02-11T20:36:12.998Z,22.26
2023-02-11T20:38:40.710Z,22.26
2023-02-11T20:41:10.624Z,22.25
2023-02-11T20:43:39.654Z,22.24
2023-02-11T20:46:07.429Z,22.25
2023-02-11T20:48:39.203Z,22.25
2023-02-11T20:51:07.386Z,22.25
2023-02-11T20:53:35.353Z,22.24
2023-02-11T20:56:08.157Z,22.24
2023-02-11T20:58:35.927Z,22.24
2023-02-11T21:01:10.218Z,22.23
2023-02-11T21:03:37.889Z,22.24
2023-02-11T21:06:07.242Z,22.23
2023-02-11T21:08:34.932Z,22.22
2023-02-11T21:11:02.895Z,22.23
2023-02-11T21:13:31.591Z,22.23
2023-02-11T21:15:59.260Z,22.22
2023-02-11T21:18:29.117Z,22.23
2023-02-11T21:20:56.870Z,22.22
2023-02-11T21:23:26.235Z,22.22
2023-02-11T21:25:54.400Z,22.22
2023-02-11T21:28:26.973Z,22.22
2023-02-11T21:30:54.768Z,22.23
2023-02-11T21:33:22.489Z,22.22
2023-02-11T21:35:53.513Z,22.22
2023-02-11T21:38:21.316Z,22.23
2023-02-11T21:40:49.851Z,22.22
2023-02-11T21:43:17.613Z,22.22
2023-02-11T21:45:46.241Z,22.23
2023-02-11T21:48:17.844Z,22.22
2023-02-11T21:50:46.599Z,22.21
2023-02-11T21:53:15.686Z,22.21
2023-02-11T21:55:43.278Z,22.21
2023-02-11T21:58:13.206Z,22.21
2023-02-11T22:00:40.996Z,22.20
2023-02-11T22:03:08.744Z,22.20
2023-02-11T22:05:37.313Z,22.17
2023-02-11T22:08:05.018Z,22.17
2023-02-11T22:10:34.125Z,22.16
2023-02-11T22:13:02.765Z,22.16
2023-02-11T22:15:30.374Z,22.15
2023-02-11T22:17:58.052Z,22.14
2023-02-11T22:20:26.513Z,22.13
2023-02-11T22:22:54.200Z,22.13
2023-02-11T22:25:22.542Z,22.12
2023-02-11T22:27:51.557Z,22.11
2023-02-11T22:30:19.310Z,22.11
2023-02-11T22:32:48.188Z,22.10
2023-02-11T22:35:15.952Z,22.09
2023-02-11T22:37:43.627Z,22.09
2023-02-11T22:40:12.471Z,22.09
2023-02-11T22:42:40.220Z,22.09
2023-02-11T22:45:10.789Z,22.10
2023-02-11T22:47:40.498Z,22.10
2023-02-11T22:50:08.432Z,22.10
2023-02-11T22:52:36.900Z,22.09
2023-02-11T22:55:04.771Z,22.09
2023-02-11T22:57:32.406Z,22.08
2023-02-11T23:00:01.099Z,22.06
2023-02-11T23:02:30.282Z,22.06
2023-02-11T23:05:00.489Z,22.04
2023-02-11T23:07:28.090Z,22.05
2023-02-11T23:09:55.803Z,22.04
2023-02-11T23:12:24.207Z,22.03
2023-02-11T23:14:51.977Z,22.02
2023-02-11T23:17:19.777Z,22.02
2023-02-11T23:19:49.357Z,22.00
2023-02-11T23:22:17.037Z,22.00
2023-02-11T23:24:44.772Z,21.98
2023-02-11T23:27:12.549Z,21.98
2023-02-11T23:29:40.207Z,21.98
2023-02-11T23:32:07.922Z,21.97
2023-02-11T23:34:35.699Z,21.97
2023-02-11T23:37:04.765Z,21.97
2023-02-11T23:39:32.519Z,21.96
2023-02-11T23:42:00.208Z,21.95
2023-02-11T23:44:27.980Z,21.95
2023-02-11T23:46:55.677Z,21.95
2023-02-11T23:49:23.421Z,21.94
2023-02-11T23:51:51.044Z,21.95
2023-02-11T23:54:20.009Z,21.95
2023-02-11T23:56:47.711Z,21.95
2023-02-11T23:59:15.476Z,21.94
